createdAt,value
2023-02-24T00:00:32.731Z,-1.83
2023-02-24T00:03:06.551Z,-1.86
2023-02-24T00:05:37.522Z,-1.88
2023-02-24T00:08:10.720Z,-1.94
2023-02-24T00:10:39.172Z,-1.77
2023-02-24T00:13:07.979Z,-1.72
2023-02-24T00:15:36.454Z,-1.70
2023-02-24T00:18:07.697Z,-1.70
2023-02-24T00:20:36.588Z,-1.70
2023-02-24T00:23:05.176Z,-1.69
2023-02-24T00:25:33.762Z,-1.70
2023-02-24T00:28:02.651Z,-1.71
2023-02-24T00:30:33.304Z,-1.72
2023-02-24T00:33:04.181Z,-1.72
2023-02-24T00:35:32.755Z,-1.75
2023-02-24T00:38:03.253Z,-1.78
2023-02-24T00:40:37.478Z,-1.76
2023-02-24T00:43:09.232Z,-1.68
2023-02-24T00:45:41.613Z,-1.65
2023-02-24T00:48:16.133Z,-1.62
2023-02-24T00:50:44.774Z,-1.63
2023-02-24T00:53:13.220Z,-1.63
2023-02-24T00:55:41.689Z,-1.61
2023-02-24T00:58:10.198Z,-1.61
2023-02-24T01:00:39.383Z,-1.61
2023-02-24T01:03:08.585Z,-1.64
2023-02-24T01:05:38.751Z,-1.64
2023-02-24T01:08:08.312Z,-1.65
2023-02-24T01:10:38.127Z,-1.71
2023-02-24T01:13:06.600Z,-1.71
2023-02-24T01:15:37.240Z,-1.64
2023-02-24T01:18:11.176Z,-1.63
2023-02-24T01:20:39.938Z,-1.62
2023-02-24T01:23:08.326Z,-1.60
2023-02-24T01:25:39.260Z,-1.59
2023-02-24T01:28:11.331Z,-1.65
2023-02-24T01:30:43.294Z,-1.60
2023-02-24T01:33:14.837Z,-1.62
2023-02-24T01:35:43.949Z,-1.63
2023-02-24T01:38:12.553Z,-1.60
2023-02-24T01:40:43.791Z,-1.55
2023-02-24T01:43:13.295Z,-1.53
2023-02-24T01:45:41.996Z,-1.53
2023-02-24T01:48:11.334Z,-1.54
2023-02-24T01:50:41.828Z,-1.55
2023-02-24T01:53:11.538Z,-1.57
2023-02-24T01:55:50.158Z,-1.62
2023-02-24T01:58:28.984Z,-1.59
2023-02-24T02:00:58.191Z,-1.54
2023-02-24T02:03:38.251Z,-1.52
2023-02-24T02:06:07.879Z,-1.49
2023-02-24T02:08:38.592Z,-1.60
2023-02-24T02:11:09.225Z,-1.64
2023-02-24T02:13:43.789Z,-1.63
2023-02-24T02:16:48.073Z,-1.58
2023-02-24T02:19:41.646Z,-1.50
2023-02-24T02:22:30.507Z,-1.50
2023-02-24T02:25:26.644Z,-1.49
2023-02-24T02:27:58.295Z,-1.50
2023-02-24T02:30:34.087Z,-1.53
2023-02-24T02:33:28.757Z,-1.54
2023-02-24T02:36:00.838Z,-1.46
2023-02-24T02:38:57.875Z,-1.43
2023-02-24T02:41:29.832Z,-1.43
2023-02-24T02:44:12.150Z,-1.46
2023-02-24T02:47:06.542Z,-1.47
2023-02-24T02:49:38.715Z,-1.56
2023-02-24T02:52:38.120Z,-1.57
2023-02-24T02:55:28.521Z,-1.46
2023-02-24T02:57:57.229Z,-1.45
2023-02-24T03:00:35.405Z,-1.47
2023-02-24T03:03:10.106Z,-1.46
2023-02-24T03:05:55.841Z,-1.47
2023-02-24T03:08:27.086Z,-1.45
2023-02-24T03:10:58.338Z,-1.38
2023-02-24T03:13:30.609Z,-1.29
2023-02-24T03:16:03.626Z,-1.22
2023-02-24T03:18:34.067Z,-1.18
2023-02-24T03:21:09.786Z,-1.15
2023-02-24T03:23:48.601Z,-1.26
2023-02-24T03:26:29.191Z,-1.24
2023-02-24T03:29:11.281Z,-1.20
2023-02-24T03:31:46.606Z,-1.12
2023-02-24T03:34:21.356Z,-1.05
2023-02-24T03:36:54.566Z,-1.01
2023-02-24T03:39:24.185Z,-1.01
2023-02-24T03:42:12.010Z,-1.02
2023-02-24T03:44:42.230Z,-1.03
2023-02-24T03:47:16.477Z,-1.02
2023-02-24T03:49:45.645Z,-0.99
2023-02-24T03:52:29.392Z,-0.94
2023-02-24T03:54:59.519Z,-0.92
2023-02-24T03:57:55.068Z,-0.92
2023-02-24T04:00:52.607Z,-0.90
2023-02-24T04:03:25.925Z,-0.91
2023-02-24T04:06:16.190Z,-0.87
2023-02-24T04:08:52.668Z,-0.79
2023-02-24T04:11:30.252Z,-0.81
2023-02-24T04:14:08.670Z,-0.78
2023-02-24T04:16:57.445Z,-0.80
2023-02-24T04:19:27.961Z,-0.77
2023-02-24T04:21:56.545Z,-0.72
2023-02-24T04:24:29.082Z,-0.69
2023-02-24T04:27:01.934Z,-0.69
2023-02-24T04:29:35.887Z,-0.65
2023-02-24T04:32:09.406Z,-0.64
2023-02-24T04:34:40.507Z,-0.64
2023-02-24T04:37:09.467Z,-0.61
2023-02-24T04:39:38.781Z,-0.53
2023-02-24T04:42:11.252Z,-0.48
2023-02-24T04:44:39.731Z,-0.47
2023-02-24T04:47:10.984Z,-0.45
2023-02-24T04:49:41.410Z,-0.46
2023-02-24T04:52:09.892Z,-0.48
2023-02-24T04:54:38.585Z,-0.43
2023-02-24T04:57:08.296Z,-0.37
2023-02-24T04:59:38.419Z,-0.37
2023-02-24T05:02:06.900Z,-0.49
2023-02-24T05:04:39.111Z,-0.40
2023-02-24T05:07:08.374Z,-0.42
2023-02-24T05:09:37.273Z,-0.38
2023-02-24T05:12:06.775Z,-0.35
2023-02-24T05:14:36.186Z,-0.35
2023-02-24T05:17:04.766Z,-0.37
2023-02-24T05:19:52.297Z,-0.40
2023-02-24T05:22:23.134Z,-0.39
2023-02-24T05:24:51.516Z,-0.40
2023-02-24T05:27:23.991Z,-0.35
2023-02-24T05:29:55.378Z,-0.37
2023-02-24T05:32:25.667Z,-0.39
2023-02-24T05:34:54.276Z,-0.40
2023-02-24T05:37:22.836Z,-0.35
2023-02-24T05:39:55.793Z,-0.32
2023-02-24T05:42:24.206Z,-0.34
2023-02-24T05:44:53.924Z,-0.36
2023-02-24T05:47:25.582Z,-0.38
2023-02-24T05:49:57.126Z,-0.33
2023-02-24T05:52:25.508Z,-0.26
2023-02-24T05:54:55.426Z,-0.25
2023-02-24T05:57:32.619Z,-0.29
2023-02-24T06:00:09.695Z,-0.29
2023-02-24T06:02:49.737Z,-0.33
2023-02-24T06:05:26.021Z,-0.27
2023-02-24T06:08:06.586Z,-0.25
2023-02-24T06:10:35.272Z,-0.25
2023-02-24T06:13:04.388Z,-0.28
2023-02-24T06:15:33.574Z,-0.27
2023-02-24T06:18:02.154Z,-0.21
2023-02-24T06:20:33.294Z,-0.17
2023-02-24T06:23:02.298Z,-0.14
2023-02-24T06:25:33.637Z,-0.12
2023-02-24T06:28:02.537Z,-0.12
2023-02-24T06:30:33.039Z,-0.07
2023-02-24T06:33:01.756Z,-0.01
2023-02-24T06:35:30.339Z,0.02
2023-02-24T06:38:04.866Z,0.02
2023-02-24T06:40:33.348Z,0.03
2023-02-24T06:43:03.055Z,0.11
2023-02-24T06:45:32.376Z,0.17
2023-02-24T06:48:00.970Z,0.11
2023-02-24T06:50:33.116Z,0.08
2023-02-24T06:53:03.030Z,0.10
2023-02-24T06:55:35.916Z,0.18
2023-02-24T06:58:04.893Z,0.21
2023-02-24T07:00:40.901Z,0.24
2023-02-24T07:03:19.239Z,0.19
2023-02-24T07:05:54.493Z,0.27
2023-02-24T07:08:24.447Z,0.36
2023-02-24T07:10:56.142Z,0.40
2023-02-24T07:13:26.139Z,0.34
2023-02-24T07:16:07.545Z,0.38
2023-02-24T07:18:37.301Z,0.39
2023-02-24T07:21:06.416Z,0.47
2023-02-24T07:23:35.076Z,0.50
2023-02-24T07:26:10.440Z,0.50
2023-02-24T07:28:40.315Z,0.51
2023-02-24T07:31:13.784Z,0.50
2023-02-24T07:33:45.422Z,0.59
2023-02-24T07:36:15.227Z,0.63
2023-02-24T07:38:44.421Z,0.58
2023-02-24T07:41:15.374Z,0.65
2023-02-24T07:43:44.560Z,0.63
2023-02-24T07:46:14.545Z,0.67
2023-02-24T07:48:42.855Z,0.72
2023-02-24T07:51:12.487Z,0.69
2023-02-24T07:53:43.811Z,0.68
2023-02-24T07:56:14.149Z,0.71
2023-02-24T07:58:46.922Z,0.78
2023-02-24T08:01:23.359Z,0.86
2023-02-24T08:03:56.313Z,0.89
2023-02-24T08:06:31.751Z,0.89
2023-02-24T08:09:16.995Z,0.90
2023-02-24T08:11:47.534Z,0.90
2023-02-24T08:14:27.277Z,1.00
2023-02-24T08:16:59.576Z,1.06
2023-02-24T08:19:33.553Z,1.07
2023-02-24T08:22:19.744Z,1.07
2023-02-24T08:25:00.928Z,1.03
2023-02-24T08:27:32.391Z,1.06
2023-02-24T08:30:03.222Z,1.10
2023-02-24T08:32:34.579Z,1.13
2023-02-24T08:35:14.857Z,1.14
2023-02-24T08:37:52.208Z,1.15
2023-02-24T08:40:32.685Z,1.22
2023-02-24T08:43:17.491Z,1.28
2023-02-24T08:46:18.606Z,1.32
2023-02-24T08:48:49.658Z,1.31
2023-02-24T08:51:23.371Z,1.29
2023-02-24T08:53:53.735Z,1.38
2023-02-24T08:56:26.964Z,1.44
2023-02-24T08:59:05.802Z,1.47
2023-02-24T09:01:40.187Z,1.49
2023-02-24T09:04:11.035Z,1.50
2023-02-24T09:06:44.459Z,1.56
2023-02-24T09:09:18.568Z,1.65
2023-02-24T09:11:56.673Z,1.70
2023-02-24T09:14:37.637Z,1.72
2023-02-24T09:17:07.277Z,1.73
2023-02-24T09:19:42.286Z,1.74
2023-02-24T09:22:31.687Z,1.79
2023-02-24T09:25:21.330Z,1.82
2023-02-24T09:28:10.709Z,1.83
2023-02-24T09:30:51.670Z,1.84
2023-02-24T09:33:21.595Z,1.89
2023-02-24T09:36:09.982Z,1.95
2023-02-24T09:39:21.745Z,1.98
2023-02-24T09:41:54.914Z,1.98
2023-02-24T09:44:26.480Z,1.97
2023-02-24T09:47:31.514Z,2.06
2023-02-24T09:50:06.458Z,2.11
2023-02-24T09:52:42.110Z,2.14
2023-02-24T09:55:28.198Z,2.19
2023-02-24T09:58:19.926Z,2.24
2023-02-24T10:01:21.549Z,2.29
2023-02-24T10:04:20.124Z,2.31
2023-02-24T10:06:50.969Z,2.34
2023-02-24T10:09:34.856Z,2.36
2023-02-24T10:12:07.644Z,2.35
2023-02-24T10:15:14.823Z,2.37
2023-02-24T10:17:47.607Z,2.38
2023-02-24T10:20:39.937Z,2.33
2023-02-24T10:23:45.496Z,2.34
2023-02-24T10:26:30.669Z,2.32
2023-02-24T10:29:09.189Z,2.37
2023-02-24T10:31:46.310Z,2.37
2023-02-24T10:34:25.614Z,2.34
2023-02-24T10:38:05.638Z,2.34
2023-02-24T10:40:47.255Z,2.38
2023-02-24T10:43:30.488Z,2.43
2023-02-24T10:46:06.446Z,2.45
2023-02-24T10:48:42.221Z,2.47
2023-02-24T10:51:20.365Z,2.48
2023-02-24T10:54:10.170Z,2.52
2023-02-24T10:56:55.566Z,2.55
2023-02-24T10:59:48.680Z,2.55
2023-02-24T11:02:33.101Z,2.54
2023-02-24T11:05:27.380Z,2.52
2023-02-24T11:08:49.721Z,2.58
2023-02-24T11:11:26.029Z,2.58
2023-02-24T11:14:19.054Z,2.59
2023-02-24T11:17:10.980Z,2.60
2023-02-24T11:19:45.648Z,2.61
2023-02-24T11:22:15.561Z,2.68
2023-02-24T11:24:45.542Z,2.72
2023-02-24T11:27:16.022Z,2.74
2023-02-24T11:30:26.078Z,2.72
2023-02-24T11:33:09.456Z,2.68
2023-02-24T11:35:48.487Z,2.73
2023-02-24T11:38:28.167Z,2.75
2023-02-24T11:41:05.529Z,2.77
2023-02-24T11:43:35.691Z,2.78
2023-02-24T11:46:27.139Z,2.75
2023-02-24T11:48:57.300Z,2.80
2023-02-24T11:51:34.512Z,2.85
2023-02-24T11:54:10.850Z,2.84
2023-02-24T11:56:40.239Z,2.80
2023-02-24T11:59:33.824Z,2.77
2023-02-24T12:02:48.333Z,2.76
2023-02-24T12:05:27.746Z,2.81
2023-02-24T12:08:26.104Z,2.80
2023-02-24T12:11:11.714Z,2.82
2023-02-24T12:13:48.770Z,2.84
2023-02-24T12:16:33.604Z,2.92
2023-02-24T12:19:14.102Z,3.02
2023-02-24T12:21:49.547Z,3.06
2023-02-24T12:24:18.035Z,3.08
2023-02-24T12:26:59.734Z,3.12
2023-02-24T12:29:48.892Z,3.12
2023-02-24T12:32:43.213Z,3.17
2023-02-24T12:35:36.850Z,3.19
2023-02-24T12:38:28.996Z,3.19
2023-02-24T12:41:12.526Z,3.19
2023-02-24T12:43:59.084Z,3.18
2023-02-24T12:46:35.731Z,3.23
2023-02-24T12:49:23.335Z,3.26
2023-02-24T12:52:05.200Z,3.29
2023-02-24T12:55:00.866Z,3.32
2023-02-24T12:57:53.911Z,3.36
2023-02-24T13:00:40.669Z,3.45
2023-02-24T13:03:37.471Z,3.47
2023-02-24T13:06:23.260Z,3.47
2023-02-24T13:09:13.962Z,3.46
2023-02-24T13:11:42.449Z,3.47
2023-02-24T13:14:37.565Z,3.49
2023-02-24T13:17:12.147Z,3.53
2023-02-24T13:19:43.522Z,3.55
2023-02-24T13:22:12.758Z,3.66
2023-02-24T13:24:55.360Z,3.78
2023-02-24T13:27:29.357Z,3.85
2023-02-24T13:30:01.192Z,3.89
2023-02-24T13:32:55.936Z,3.85
2023-02-24T13:35:24.404Z,3.75
2023-02-24T13:37:54.472Z,3.62
2023-02-24T13:40:24.548Z,3.54
2023-02-24T13:43:00.198Z,3.51
2023-02-24T13:45:30.379Z,3.45
2023-02-24T13:48:21.229Z,3.39
2023-02-24T13:50:53.006Z,3.33
2023-02-24T13:53:46.564Z,3.24
2023-02-24T13:56:34.409Z,3.18
2023-02-24T13:59:19.679Z,3.18
2023-02-24T14:02:12.808Z,3.13
2023-02-24T14:04:51.910Z,3.07
2023-02-24T14:07:25.587Z,2.98
2023-02-24T14:10:19.413Z,2.94
2023-02-24T14:12:48.561Z,2.97
2023-02-24T14:15:24.512Z,2.91
2023-02-24T14:17:59.898Z,3.00
2023-02-24T14:20:31.993Z,2.90
2023-02-24T14:23:01.634Z,2.85
2023-02-24T14:25:36.106Z,2.90
2023-02-24T14:28:05.258Z,2.98
2023-02-24T14:30:35.966Z,3.00
2023-02-24T14:33:07.075Z,3.01
2023-02-24T14:35:39.302Z,2.99
2023-02-24T14:38:30.314Z,2.96
2023-02-24T14:40:58.712Z,3.00
2023-02-24T14:43:28.407Z,3.06
2023-02-24T14:45:58.243Z,3.06
2023-02-24T14:48:30.137Z,3.05
2023-02-24T14:51:03.586Z,3.01
2023-02-24T14:53:32.067Z,2.95
2023-02-24T14:56:01.423Z,2.97
2023-02-24T14:58:42.459Z,3.02
2023-02-24T15:01:52.568Z,3.01
2023-02-24T15:04:34.425Z,2.99
2023-02-24T15:07:05.250Z,2.89
2023-02-24T15:09:41.062Z,2.83
2023-02-24T15:12:12.486Z,2.92
2023-02-24T15:15:13.699Z,2.92
2023-02-24T15:17:42.727Z,2.89
2023-02-24T15:20:44.144Z,2.84
2023-02-24T15:23:47.856Z,2.84
2023-02-24T15:26:33.948Z,2.88
2023-02-24T15:29:13.025Z,2.86
2023-02-24T15:31:47.615Z,2.81
2023-02-24T15:34:23.054Z,2.79
2023-02-24T15:36:53.887Z,2.82
2023-02-24T15:39:24.203Z,2.87
2023-02-24T15:41:52.594Z,2.86
2023-02-24T15:44:27.600Z,2.79
2023-02-24T15:46:57.103Z,2.69
2023-02-24T15:49:25.633Z,2.70
2023-02-24T15:51:55.198Z,2.72
2023-02-24T15:54:35.318Z,2.84
2023-02-24T15:57:03.876Z,2.87
2023-02-24T15:59:32.361Z,2.87
2023-02-24T16:02:01.343Z,2.84
2023-02-24T16:04:29.827Z,2.89
2023-02-24T16:06:58.323Z,2.97
2023-02-24T16:09:36.937Z,2.94
2023-02-24T16:12:12.400Z,2.99
2023-02-24T16:14:44.047Z,2.98
2023-02-24T16:17:33.514Z,2.95
2023-02-24T16:20:02.524Z,3.00
2023-02-24T16:22:31.318Z,3.04
2023-02-24T16:24:59.991Z,3.04
2023-02-24T16:27:30.004Z,3.04
2023-02-24T16:29:58.691Z,2.98
2023-02-24T16:32:27.353Z,2.95
2023-02-24T16:34:57.429Z,2.93
2023-02-24T16:37:29.478Z,3.06
2023-02-24T16:40:00.788Z,3.07
2023-02-24T16:42:29.404Z,3.07
2023-02-24T16:44:57.783Z,3.06
2023-02-24T16:47:26.167Z,3.10
2023-02-24T16:49:58.132Z,3.05
2023-02-24T16:52:26.617Z,3.13
2023-02-24T16:54:55.094Z,3.12
2023-02-24T16:57:25.963Z,3.10
2023-02-24T16:59:55.137Z,3.10
2023-02-24T17:02:43.686Z,3.15
2023-02-24T17:05:24.884Z,3.08
2023-02-24T17:07:55.306Z,3.01
2023-02-24T17:10:28.902Z,2.98
2023-02-24T17:12:58.307Z,3.00
2023-02-24T17:15:27.916Z,3.04
2023-02-24T17:17:57.118Z,3.04
2023-02-24T17:20:25.501Z,3.02
2023-02-24T17:22:59.210Z,2.98
2023-02-24T17:25:28.868Z,2.94
2023-02-24T17:27:58.545Z,2.96
2023-02-24T17:30:30.672Z,2.96
2023-02-24T17:32:59.386Z,2.93
2023-02-24T17:35:28.171Z,2.90
2023-02-24T17:37:56.975Z,2.91
2023-02-24T17:40:26.677Z,2.94
2023-02-24T17:42:55.377Z,2.81
2023-02-24T17:45:24.055Z,2.89
2023-02-24T17:47:54.175Z,2.88
2023-02-24T17:50:22.437Z,2.93
2023-02-24T17:52:51.143Z,2.92
2023-02-24T17:55:19.631Z,2.89
2023-02-24T17:57:47.906Z,2.92
2023-02-24T18:00:16.991Z,2.98
2023-02-24T18:02:45.640Z,3.09
2023-02-24T18:05:14.797Z,3.12
2023-02-24T18:07:45.106Z,3.12
2023-02-24T18:10:13.623Z,3.11
2023-02-24T18:12:42.070Z,3.16
2023-02-24T18:15:10.869Z,3.25
2023-02-24T18:17:40.271Z,3.30
2023-02-24T18:20:12.586Z,3.28
2023-02-24T18:22:41.940Z,3.27
2023-02-24T18:25:10.728Z,3.27
2023-02-24T18:27:39.015Z,3.30
2023-02-24T18:30:17.936Z,3.33
2023-02-24T18:32:48.251Z,3.33
2023-02-24T18:35:17.771Z,3.33
2023-02-24T18:37:49.225Z,3.34
2023-02-24T18:40:17.708Z,3.36
2023-02-24T18:42:46.196Z,3.45
2023-02-24T18:45:14.575Z,3.47
2023-02-24T18:47:42.965Z,3.45
2023-02-24T18:50:13.158Z,3.41
2023-02-24T18:52:41.702Z,3.36
2023-02-24T18:55:10.661Z,3.36
2023-02-24T18:57:39.858Z,3.39
2023-02-24T19:00:14.083Z,3.40
2023-02-24T19:02:42.976Z,3.41
2023-02-24T19:05:13.239Z,3.40
2023-02-24T19:07:43.219Z,3.42
2023-02-24T19:10:15.801Z,3.46
2023-02-24T19:12:44.476Z,3.45
2023-02-24T19:15:14.495Z,3.42
2023-02-24T19:17:44.984Z,3.40
2023-02-24T19:20:16.749Z,3.39
2023-02-24T19:22:47.742Z,3.44
2023-02-24T19:25:17.548Z,3.46
2023-02-24T19:27:48.281Z,3.46
2023-02-24T19:30:17.659Z,3.43
2023-02-24T19:32:47.364Z,3.38
2023-02-24T19:35:18.702Z,3.41
2023-02-24T19:37:48.987Z,3.45
2023-02-24T19:40:18.504Z,3.46
2023-02-24T19:42:52.125Z,3.47
2023-02-24T19:45:22.100Z,3.46
2023-02-24T19:47:50.994Z,3.51
2023-02-24T19:50:22.530Z,3.59
2023-02-24T19:52:51.643Z,3.60
2023-02-24T19:55:20.027Z,3.58
2023-02-24T19:57:48.412Z,3.55
2023-02-24T20:00:19.085Z,3.54
2023-02-24T20:02:47.520Z,3.54
2023-02-24T20:05:16.209Z,3.56
2023-02-24T20:07:44.689Z,3.54
2023-02-24T20:10:15.967Z,3.49
2023-02-24T20:12:45.243Z,3.43
2023-02-24T20:15:13.831Z,3.38
2023-02-24T20:17:49.921Z,3.39
2023-02-24T20:20:18.579Z,3.40
2023-02-24T20:22:47.267Z,3.39
2023-02-24T20:25:16.773Z,3.37
2023-02-24T20:27:45.259Z,3.32
2023-02-24T20:30:14.180Z,3.32
2023-02-24T20:32:42.666Z,3.33
2023-02-24T20:35:11.141Z,3.33
2023-02-24T20:37:40.830Z,3.33
2023-02-24T20:40:10.282Z,3.32
2023-02-24T20:42:40.251Z,3.35
2023-02-24T20:45:12.525Z,3.39
2023-02-24T20:47:41.414Z,3.39
2023-02-24T20:50:10.338Z,3.38
2023-02-24T20:52:38.893Z,3.35
2023-02-24T20:55:07.817Z,3.39
2023-02-24T20:57:36.889Z,3.46
2023-02-24T21:00:08.349Z,3.50
2023-02-24T21:02:41.527Z,3.52
2023-02-24T21:05:10.882Z,3.51
2023-02-24T21:07:39.278Z,3.56
2023-02-24T21:10:11.542Z,3.63
2023-02-24T21:12:40.886Z,3.63
2023-02-24T21:15:12.555Z,3.61
2023-02-24T21:17:41.440Z,3.61
2023-02-24T21:20:11.402Z,3.63
2023-02-24T21:22:40.581Z,3.68
2023-02-24T21:25:11.020Z,3.69
2023-02-24T21:27:39.674Z,3.66
2023-02-24T21:30:09.116Z,3.66
2023-02-24T21:32:37.794Z,3.67
2023-02-24T21:35:08.611Z,3.72
2023-02-24T21:37:37.594Z,3.75
2023-02-24T21:40:11.303Z,3.74
2023-02-24T21:42:43.265Z,3.72
2023-02-24T21:45:12.078Z,3.71
2023-02-24T21:47:41.473Z,3.75
2023-02-24T21:50:12.197Z,3.77
2023-02-24T21:52:41.097Z,3.76
2023-02-24T21:55:09.953Z,3.73
2023-02-24T21:57:44.942Z,3.72
2023-02-24T22:00:19.320Z,3.74
2023-02-24T22:02:49.720Z,3.76
2023-02-24T22:05:20.617Z,3.72
2023-02-24T22:07:50.522Z,3.70
2023-02-24T22:10:20.819Z,3.71
2023-02-24T22:12:49.642Z,3.77
2023-02-24T22:15:18.119Z,3.76
2023-02-24T22:17:46.500Z,3.76
2023-02-24T22:20:19.185Z,3.72
2023-02-24T22:22:48.811Z,3.74
2023-02-24T22:25:17.787Z,3.79
2023-02-24T22:27:46.075Z,3.81
2023-02-24T22:30:15.683Z,3.80
2023-02-24T22:32:44.691Z,3.82
2023-02-24T22:35:14.487Z,3.87
2023-02-24T22:37:42.868Z,3.95
2023-02-24T22:40:12.319Z,3.99
2023-02-24T22:42:40.861Z,3.98
2023-02-24T22:45:09.882Z,3.95
2023-02-24T22:47:38.297Z,3.91
2023-02-24T22:50:07.260Z,3.94
2023-02-24T22:55:46.703Z,4.05
2023-02-24T22:58:15.809Z,4.03
2023-02-24T23:00:46.577Z,4.01
2023-02-24T23:03:16.329Z,4.02
2023-02-24T23:06:06.704Z,4.05
2023-02-24T23:08:37.373Z,4.04
2023-02-24T23:11:21.119Z,4.00
2023-02-24T23:13:51.128Z,4.00
2023-02-24T23:16:22.266Z,4.05
2023-02-24T23:18:54.134Z,4.10
2023-02-24T23:21:25.317Z,4.10
2023-02-24T23:23:57.153Z,4.07
2023-02-24T23:26:45.906Z,4.06
2023-02-24T23:29:17.496Z,4.09
2023-02-24T23:31:46.538Z,4.11
2023-02-24T23:34:15.445Z,4.11
2023-02-24T23:36:46.090Z,4.08
2023-02-24T23:39:23.239Z,4.04
2023-02-24T23:41:57.542Z,4.07
2023-02-24T23:44:26.587Z,4.12
2023-02-24T23:46:55.327Z,4.05
2023-02-24T23:49:24.264Z,4.13
2023-02-24T23:51:53.569Z,4.09
2023-02-24T23:54:21.954Z,4.09
2023-02-24T23:56:50.949Z,4.13
2023-02-24T23:59:21.884Z,4.15
